Time;durP1;ratioP1;P1;durP2;ratioP2;P2;SDS_P1;SDS_P2;PMS_P1;PMS_P2;Temp;Humidity;BMP_temperature;BMP_pressure;BME280_temperature;BME280_humidity;BME280_pressure;Samples;Min_cycle;Max_cycle;Signal;HPM_P1;HPM_P2
2021/05/27 00:00:31;;;;;;;0.25;0.25;;;;;;;8.94;89.23;101098.53;4982181;28;20073;-73
2021/05/27 00:02:57;;;;;;;0.28;0.28;;;;;;;8.89;89.51;101098.00;4984296;28;20057;-72
2021/05/27 00:05:23;;;;;;;0.30;0.30;;;;;;;8.91;89.08;101101.31;4960710;28;20065;-73
2021/05/27 00:07:50;;;;;;;0.38;0.38;;;;;;;8.91;89.31;101096.13;4983698;28;20480;-73
2021/05/27 00:10:18;;;;;;;0.35;0.35;;;;;;;8.69;88.72;101056.00;4983529;28;20030;-73
2021/05/27 00:12:44;;;;;;;0.40;0.38;;;;;;;8.85;89.18;101086.16;4982940;28;20172;-73
2021/05/27 00:15:11;;;;;;;0.40;0.40;;;;;;;8.84;88.71;101087.09;4984352;28;20398;-74
2021/05/27 00:17:36;;;;;;;0.35;0.35;;;;;;;8.85;88.87;101084.41;4981280;28;20468;-73
2021/05/27 00:20:04;;;;;;;0.30;0.30;;;;;;;8.82;88.99;101091.56;4967090;28;20035;-73
2021/05/27 00:22:30;;;;;;;0.30;0.30;;;;;;;8.94;87.79;101088.97;4980369;28;20042;-73
2021/05/27 00:24:56;;;;;;;0.30;0.30;;;;;;;8.87;88.38;101094.69;4980954;28;20034;-72
2021/05/27 00:27:22;;;;;;;0.20;0.20;;;;;;;8.63;88.47;101066.81;4983460;28;20060;-73
2021/05/27 00:29:48;;;;;;;0.30;0.30;;;;;;;8.96;87.80;101115.66;4981993;28;20041;-72
2021/05/27 00:32:13;;;;;;;0.20;0.20;;;;;;;8.75;88.18;101086.75;4983856;28;20037;-73
2021/05/27 00:34:39;;;;;;;0.30;0.30;;;;;;;8.88;88.15;101112.75;4982163;28;20579;-72
2021/05/27 00:37:04;;;;;;;0.30;0.30;;;;;;;8.80;87.95;101096.88;4981026;28;20047;-72
2021/05/27 00:39:30;;;;;;;0.20;0.20;;;;;;;8.85;88.14;101117.31;4981456;28;20050;-71
2021/05/27 00:41:57;;;;;;;0.30;0.30;;;;;;;8.77;88.13;101110.03;4983316;28;20069;-72
2021/05/27 00:44:24;;;;;;;0.40;0.40;;;;;;;8.87;87.79;101113.69;4966373;28;20053;-72
2021/05/27 00:46:51;;;;;;;0.30;0.30;;;;;;;8.70;88.42;101096.63;4981789;28;20403;-72
2021/05/27 00:49:17;;;;;;;0.30;0.30;;;;;;;8.68;88.61;101092.47;4999147;28;20092;-72
2021/05/27 00:51:44;;;;;;;0.30;0.30;;;;;;;8.90;88.11;101115.25;4979757;28;20066;-72
2021/05/27 00:54:11;;;;;;;0.20;0.20;;;;;;;8.20;88.38;101016.81;4980085;28;20643;-72
2021/05/27 00:56:37;;;;;;;0.30;0.30;;;;;;;8.89;88.37;101111.00;4980832;28;20148;-72
2021/05/27 00:59:04;;;;;;;0.40;0.30;;;;;;;8.84;88.60;101103.50;4982676;28;20046;-72
2021/05/27 01:01:29;;;;;;;0.30;0.30;;;;;;;8.79;88.07;101097.75;4981764;28;20042;-72
2021/05/27 01:03:56;;;;;;;0.22;0.22;;;;;;;8.70;88.15;101085.41;4980457;28;20038;-72
2021/05/27 01:06:22;;;;;;;0.20;0.20;;;;;;;8.86;88.69;101112.03;5002196;28;20096;-73
2021/05/27 01:08:47;;;;;;;0.22;0.22;;;;;;;8.84;88.48;101107.88;4986160;28;20072;-72
2021/05/27 01:11:15;;;;;;;0.20;0.20;;;;;;;8.74;88.87;101086.84;4984912;28;20100;-72
2021/05/27 01:13:41;;;;;;;0.20;0.20;;;;;;;8.94;88.76;101111.50;4968339;28;20097;-72
2021/05/27 01:16:12;;;;;;;0.20;0.20;;;;;;;8.89;88.71;101117.00;4984508;28;20436;-72
2021/05/27 01:18:38;;;;;;;0.30;0.30;;;;;;;8.82;89.44;101097.59;4986023;28;20080;-72
2021/05/27 01:21:04;;;;;;;0.20;0.20;;;;;;;8.74;89.69;101094.66;4965508;28;20405;-72
2021/05/27 01:23:31;;;;;;;0.30;0.30;;;;;;;8.71;89.00;101087.91;4985272;28;20088;-72
2021/05/27 01:25:58;;;;;;;0.30;0.30;;;;;;;8.95;89.66;101121.78;4986408;28;20333;-72
2021/05/27 01:28:28;;;;;;;0.30;0.30;;;;;;;8.85;88.79;101097.38;4985619;28;20073;-72
2021/05/27 01:30:57;;;;;;;0.40;0.40;;;;;;;9.02;89.09;101120.47;4985631;28;20512;-71
2021/05/27 01:33:27;;;;;;;0.25;0.25;;;;;;;8.96;89.29;101115.66;4986002;28;20038;-72
2021/05/27 01:35:54;;;;;;;0.30;0.30;;;;;;;8.97;89.05;101127.72;4984335;28;20043;-72
2021/05/27 01:38:25;;;;;;;0.30;0.30;;;;;;;8.96;89.29;101114.84;4985721;28;20085;-72
2021/05/27 01:40:52;;;;;;;0.25;0.25;;;;;;;8.81;89.55;101090.72;5000828;28;20121;-71
2021/05/27 01:43:20;;;;;;;0.30;0.30;;;;;;;8.85;89.02;101101.75;4969964;28;20038;-72
2021/05/27 01:45:46;;;;;;;0.30;0.30;;;;;;;8.88;89.44;101104.97;4984961;28;20030;-72
2021/05/27 01:48:12;;;;;;;0.30;0.30;;;;;;;8.63;89.46;101066.81;4987805;28;20387;-72
2021/05/27 01:50:46;;;;;;;0.68;0.40;;;;;;;9.02;89.45;101127.44;4967371;28;20042;-72
2021/05/27 01:53:13;;;;;;;0.20;0.20;;;;;;;9.01;89.61;101129.19;4986739;28;20062;-72
2021/05/27 01:55:45;;;;;;;0.30;0.30;;;;;;;8.95;90.25;101118.38;4996406;28;20507;-72
2021/05/27 01:58:11;;;;;;;0.30;0.30;;;;;;;8.95;90.26;101118.38;4982163;28;20056;-72
2021/05/27 02:00:39;;;;;;;0.30;0.30;;;;;;;8.98;90.29;101129.41;4970065;28;20048;-72
2021/05/27 02:03:05;;;;;;;0.30;0.30;;;;;;;8.98;90.34;101113.81;4985235;28;20223;-72
2021/05/27 02:05:32;;;;;;;0.43;0.38;;;;;;;9.02;90.35;101125.66;4969935;28;20034;-72
2021/05/27 02:08:02;;;;;;;0.32;0.32;;;;;;;9.03;90.65;101127.31;4969010;28;20181;-73
2021/05/27 02:10:48;;;;;;;0.20;0.20;;;;;;;9.03;90.46;101135.13;4985213;28;20038;-72
2021/05/27 02:13:13;;;;;;;0.30;0.30;;;;;;;9.03;90.57;101129.94;4984261;28;20396;-71
2021/05/27 02:15:42;;;;;;;0.38;0.38;;;;;;;9.00;90.46;101126.69;4984107;28;20039;-72
2021/05/27 02:18:07;;;;;;;0.28;0.28;;;;;;;8.85;90.94;101109.53;4983852;28;20361;-72
2021/05/27 02:20:35;;;;;;;0.30;0.30;;;;;;;8.97;91.02;101134.69;4968675;28;20042;-72
2021/05/27 02:23:02;;;;;;;0.30;0.30;;;;;;;9.00;90.91;101139.69;4966447;28;20049;-72
2021/05/27 02:25:53;;;;;;;0.22;0.22;;;;;;;9.02;90.58;101136.06;4982761;28;20058;-72
2021/05/27 02:28:44;;;;;;;0.40;0.40;;;;;;;9.02;90.29;101130.84;4984932;28;20106;-72
2021/05/27 02:31:12;;;;;;;0.40;0.40;;;;;;;9.06;90.18;101132.31;4969256;28;20034;-72
2021/05/27 02:33:44;;;;;;;0.20;0.20;;;;;;;9.10;89.35;101148.53;4983723;28;20434;-72
2021/05/27 02:36:19;;;;;;;0.30;0.30;;;;;;;9.11;89.27;101145.00;4984286;28;20272;-72
2021/05/27 02:38:46;;;;;;;0.20;0.20;;;;;;;9.05;89.75;101138.44;4984969;28;20392;-72
2021/05/27 02:41:15;;;;;;;0.30;0.30;;;;;;;8.96;90.28;101141.63;4989099;28;20042;-71
2021/05/27 02:43:41;;;;;;;0.30;0.30;;;;;;;9.06;89.98;101141.88;4984280;28;20026;-72
2021/05/27 02:46:10;;;;;;;0.30;0.30;;;;;;;8.94;90.05;101130.53;4983314;28;20045;-71
2021/05/27 02:48:36;;;;;;;0.22;0.22;;;;;;;9.06;89.97;101155.69;4987955;28;20042;-72
2021/05/27 02:51:03;;;;;;;0.30;0.30;;;;;;;8.87;90.09;101131.03;4971440;28;20831;-72
2021/05/27 02:53:31;;;;;;;0.30;0.30;;;;;;;8.93;89.90;101141.84;4983662;28;20471;-72
2021/05/27 02:55:57;;;;;;;0.25;0.25;;;;;;;8.86;89.82;101125.00;4968442;28;20406;-71
2021/05/27 02:58:29;;;;;;;0.30;0.30;;;;;;;8.97;89.49;101145.06;4988643;28;20046;-71
2021/05/27 03:00:57;;;;;;;0.20;0.20;;;;;;;9.05;89.17;101156.63;4968948;28;20764;-71
2021/05/27 03:03:25;;;;;;;0.30;0.30;;;;;;;9.03;89.90;101150.72;4987644;28;20153;-72
2021/05/27 03:05:51;;;;;;;0.30;0.30;;;;;;;9.03;89.99;101152.47;4978475;28;20126;-72
2021/05/27 03:08:21;;;;;;;0.20;0.20;;;;;;;8.95;89.96;101142.56;4984439;28;20117;-72
2021/05/27 03:10:48;;;;;;;0.20;0.20;;;;;;;8.95;90.99;101152.97;4984999;28;20076;-72
2021/05/27 03:13:14;;;;;;;0.32;0.32;;;;;;;8.85;91.38;101140.69;4982568;28;20117;-71
2021/05/27 03:15:40;;;;;;;0.22;0.20;;;;;;;8.67;91.86;101114.16;4984418;28;20547;-73
2021/05/27 03:18:07;;;;;;;0.40;0.40;;;;;;;8.93;91.74;101157.44;4967909;28;20042;-72
2021/05/27 03:20:34;;;;;;;0.20;0.20;;;;;;;8.92;91.54;101168.75;4968127;28;20046;-72
2021/05/27 03:23:01;;;;;;;0.25;0.25;;;;;;;8.86;91.70;101157.94;4984568;28;20047;-72
2021/05/27 03:25:26;;;;;;;0.28;0.28;;;;;;;8.87;92.03;101164.78;4984484;28;20026;-73
2021/05/27 03:27:52;;;;;;;0.22;0.22;;;;;;;8.87;92.14;101167.41;4983572;28;20606;-73
2021/05/27 03:30:19;;;;;;;0.25;0.25;;;;;;;8.87;92.48;101176.03;4983406;28;20045;-72
2021/05/27 03:32:49;;;;;;;0.20;0.20;;;;;;;8.90;92.11;101173.22;4993941;28;20048;-73
2021/05/27 03:35:16;;;;;;;0.30;0.30;;;;;;;8.86;92.38;101169.16;4983410;28;20027;-73
2021/05/27 03:37:42;;;;;;;0.20;0.20;;;;;;;8.85;93.20;101169.25;4983679;28;20052;-73
2021/05/27 03:40:13;;;;;;;0.20;0.20;;;;;;;8.89;92.42;101173.31;4999531;28;20112;-73
2021/05/27 03:42:45;;;;;;;0.35;0.35;;;;;;;8.91;92.63;101176.66;4983946;28;20046;-73
2021/05/27 03:45:14;;;;;;;0.35;0.35;;;;;;;8.74;92.53;101155.19;4985122;28;20038;-73
2021/05/27 03:47:45;;;;;;;;;;;;;;;8.93;92.41;101177.38;4967714;28;20537;-73
2021/05/27 03:50:17;;;;;;;0.28;0.28;;;;;;;8.87;91.84;101168.22;4981531;28;19948;-74
2021/05/27 03:52:43;;;;;;;0.40;0.40;;;;;;;8.85;91.80;101170.09;4982787;28;20030;-73
2021/05/27 03:55:11;;;;;;;0.22;0.22;;;;;;;8.77;92.04;101156.75;4981605;28;20540;-73
2021/05/27 03:57:38;;;;;;;0.25;0.25;;;;;;;8.78;92.19;101163.63;4981355;28;20054;-73
2021/05/27 04:03:00;;;;;;;0.30;0.28;;;;;;;8.85;91.98;101177.06;4986830;28;20077;-73
2021/05/27 04:08:22;;;;;;;0.30;0.30;;;;;;;8.77;91.95;101175.78;4980855;28;20050;-73
2021/05/27 04:10:48;;;;;;;0.30;0.30;;;;;;;8.84;92.48;101190.97;4984349;28;20046;-73
2021/05/27 04:13:15;;;;;;;0.20;0.20;;;;;;;8.80;92.14;101182.56;4982509;28;20045;-73
2021/05/27 04:15:42;;;;;;;0.30;0.30;;;;;;;8.86;92.45;101187.34;4983385;28;20508;-74
2021/05/27 04:18:16;;;;;;;0.40;0.40;;;;;;;8.79;92.91;101186.88;4981996;28;20407;-75
2021/05/27 04:20:46;;;;;;;0.30;0.30;;;;;;;8.82;92.49;101191.06;4979103;28;20034;-74
2021/05/27 04:23:33;;;;;;;0.30;0.30;;;;;;;8.63;92.60;101159.44;4983435;28;20042;-74
2021/05/27 04:26:06;;;;;;;0.30;0.30;;;;;;;8.83;92.77;101202.28;4983734;28;20472;-74
2021/05/27 04:28:32;;;;;;;0.22;0.22;;;;;;;8.76;92.79;101200.06;4996273;28;20037;-74
2021/05/27 04:31:14;;;;;;;0.30;0.30;;;;;;;8.82;92.72;101192.84;4983542;28;20236;-75
2021/05/27 04:33:43;;;;;;;0.30;0.30;;;;;;;8.77;93.25;101199.13;4981762;28;20046;-75
2021/05/27 04:36:12;;;;;;;0.20;0.20;;;;;;;8.78;93.08;101199.97;4982057;28;20511;-71
2021/05/27 04:38:39;;;;;;;0.20;0.20;;;;;;;8.65;92.95;101178.34;4982180;28;20108;-72
2021/05/27 04:41:05;;;;;;;0.30;0.30;;;;;;;8.86;92.53;101202.94;4984226;28;20078;-72
2021/05/27 04:43:31;;;;;;;0.20;0.20;;;;;;;8.70;92.23;101179.69;4983838;28;20038;-72
2021/05/27 04:45:57;;;;;;;0.20;0.20;;;;;;;8.57;92.52;101173.63;4995314;28;20043;-72
2021/05/27 04:48:22;;;;;;;0.20;0.20;;;;;;;8.53;92.84;101169.56;4981499;28;20489;-72
2021/05/27 04:50:50;;;;;;;0.20;0.20;;;;;;;8.79;92.99;101215.44;4982124;28;20093;-73
2021/05/27 04:53:17;;;;;;;0.32;0.32;;;;;;;8.65;92.81;101199.13;4965971;28;20172;-73
2021/05/27 04:55:45;;;;;;;0.30;0.30;;;;;;;8.65;92.35;101191.31;4981389;28;20101;-72
2021/05/27 04:58:10;;;;;;;0.20;0.20;;;;;;;8.59;93.54;101191.69;4964617;28;20557;-71
2021/05/27 05:00:37;;;;;;;0.20;0.20;;;;;;;8.68;93.35;101212.72;4981998;28;20189;-72
2021/05/27 05:03:02;;;;;;;0.30;0.30;;;;;;;8.74;93.14;101214.91;4983583;28;21667;-72
2021/05/27 05:05:29;;;;;;;0.32;0.32;;;;;;;8.60;93.08;101211.53;4982137;28;20080;-72
2021/05/27 05:07:55;;;;;;;0.30;0.30;;;;;;;8.40;93.29;101176.44;4980260;28;20519;-72
2021/05/27 05:10:23;;;;;;;0.30;0.30;;;;;;;8.63;92.90;101198.38;4982412;28;20057;-72
2021/05/27 05:12:50;;;;;;;0.20;0.20;;;;;;;8.73;92.54;101241.81;4980560;28;20089;-72
2021/05/27 05:15:29;;;;;;;0.40;0.40;;;;;;;8.69;92.95;101239.53;4981502;28;20043;-72
2021/05/27 05:18:05;;;;;;;0.40;0.40;;;;;;;8.52;93.54;101221.56;4983469;28;20050;-73
2021/05/27 05:20:33;;;;;;;0.30;0.30;;;;;;;8.44;92.99;101203.91;4951815;28;20444;-74
2021/05/27 05:22:59;;;;;;;0.40;0.40;;;;;;;8.68;93.15;101243.88;4982028;28;20149;-73
2021/05/27 05:25:26;;;;;;;0.30;0.30;;;;;;;8.70;92.53;101248.97;4982252;28;20034;-74
2021/05/27 05:27:52;;;;;;;0.22;0.22;;;;;;;8.63;93.10;101235.56;4981850;28;20178;-73
2021/05/27 05:30:18;;;;;;;0.20;0.20;;;;;;;8.75;92.71;101245.16;4983375;28;20117;-72
2021/05/27 05:32:44;;;;;;;0.30;0.30;;;;;;;8.71;92.98;101246.28;4980474;28;20034;-72
2021/05/27 05:35:12;;;;;;;0.30;0.30;;;;;;;8.75;92.70;101246.91;4981394;28;20527;-73
2021/05/27 05:37:39;;;;;;;0.30;0.30;;;;;;;8.31;93.51;101196.00;4965386;28;20371;-73
2021/05/27 05:40:08;;;;;;;0.30;0.30;;;;;;;8.54;93.58;101232.69;4981209;28;20493;-73
2021/05/27 05:42:34;;;;;;;0.20;0.20;;;;;;;8.71;93.09;101261.03;5004992;28;20046;-73
2021/05/27 05:44:59;;;;;;;0.30;0.30;;;;;;;8.47;93.43;101219.28;4966777;28;20038;-73
2021/05/27 05:47:25;;;;;;;0.22;0.22;;;;;;;8.63;93.49;101245.94;4964310;28;20053;-73
2021/05/27 05:49:50;;;;;;;0.28;0.28;;;;;;;8.27;92.54;101176.38;4964570;28;20046;-74
2021/05/27 05:52:17;;;;;;;0.30;0.30;;;;;;;8.72;92.84;101270.47;5010962;28;20035;-73
2021/05/27 05:54:42;;;;;;;0.30;0.30;;;;;;;8.64;92.63;101242.41;4968881;28;20057;-74
2021/05/27 05:57:07;;;;;;;0.20;0.20;;;;;;;8.75;92.59;101259.91;4968830;28;20089;-74
2021/05/27 05:59:33;;;;;;;0.30;0.30;;;;;;;8.75;92.63;101263.31;4990055;28;20066;-73
2021/05/27 06:02:00;;;;;;;0.30;0.30;;;;;;;8.60;92.97;101246.09;4965245;28;20476;-73
2021/05/27 06:04:26;;;;;;;0.30;0.30;;;;;;;8.73;93.46;101278.16;4968455;28;20039;-73
2021/05/27 06:06:58;;;;;;;0.38;0.38;;;;;;;8.67;93.07;101278.56;4966626;28;20057;-74
2021/05/27 06:09:29;;;;;;;0.40;0.40;;;;;;;8.53;92.79;101257.00;4980569;28;20062;-73
2021/05/27 06:11:55;;;;;;;0.30;0.30;;;;;;;8.79;92.97;101282.13;4985218;28;20497;-74
2021/05/27 06:14:21;;;;;;;0.40;0.40;;;;;;;8.75;93.59;101297.09;4986010;28;20173;-74
2021/05/27 06:16:47;;;;;;;0.32;0.32;;;;;;;8.82;93.36;101288.94;4984927;28;20034;-74
2021/05/27 06:19:14;;;;;;;0.30;0.30;;;;;;;8.54;93.76;101264.69;4985019;28;20424;-74
2021/05/27 06:21:55;;;;;;;0.30;0.30;;;;;;;8.60;93.75;101281.63;4986485;28;20069;-75
2021/05/27 06:24:43;;;;;;;0.40;0.40;;;;;;;8.57;93.58;101272.25;4982757;28;20042;-75
2021/05/27 06:27:09;;;;;;;0.30;0.30;;;;;;;8.73;93.77;101303.31;4968699;28;20096;-75
2021/05/27 06:29:34;;;;;;;0.30;0.30;;;;;;;8.79;93.62;101313.31;4984689;28;20046;-74
2021/05/27 06:32:00;;;;;;;0.30;0.30;;;;;;;8.86;93.09;101312.00;4953411;28;20156;-74
2021/05/27 06:34:25;;;;;;;0.30;0.30;;;;;;;8.58;93.23;101271.34;4970676;28;20049;-75
2021/05/27 06:36:51;;;;;;;0.38;0.38;;;;;;;8.77;93.89;101308.19;4961345;28;20303;-75
2021/05/27 06:39:16;;;;;;;0.30;0.30;;;;;;;8.70;93.39;101293.13;4985187;28;20081;-75
2021/05/27 06:41:42;;;;;;;0.30;0.30;;;;;;;8.70;93.22;101306.09;4965912;28;20551;-74
2021/05/27 06:44:07;;;;;;;0.30;0.25;;;;;;;8.71;94.22;101315.56;4982886;28;20042;-74
2021/05/27 06:46:34;;;;;;;0.30;0.30;;;;;;;8.52;94.25;101287.31;4997586;28;20046;-75
2021/05/27 06:48:59;;;;;;;0.30;0.30;;;;;;;8.81;94.18;101329.66;4984126;28;20034;-74
2021/05/27 06:51:25;;;;;;;0.30;0.30;;;;;;;8.42;94.50;101258.47;4986931;28;20626;-74
2021/05/27 06:53:51;;;;;;;0.20;0.20;;;;;;;8.73;94.46;101308.50;4968831;28;20058;-75
2021/05/27 06:56:22;;;;;;;0.28;0.28;;;;;;;8.76;94.30;101332.50;4984652;28;20060;-75
2021/05/27 06:58:48;;;;;;;0.20;0.20;;;;;;;8.92;94.13;101336.75;4981860;28;20091;-74
2021/05/27 07:01:13;;;;;;;0.30;0.30;;;;;;;8.67;93.76;101275.13;4962988;28;20042;-74
2021/05/27 07:03:39;;;;;;;0.30;0.30;;;;;;;9.16;93.79;101343.00;4966488;28;20140;-74
2021/05/27 07:06:06;;;;;;;0.30;0.30;;;;;;;9.13;93.52;101332.78;4959229;28;20046;-74
2021/05/27 07:08:32;;;;;;;0.22;0.22;;;;;;;9.36;93.01;101333.94;4966791;28;20085;-73
2021/05/27 07:10:58;;;;;;;0.25;0.25;;;;;;;9.50;91.63;101352.06;4945208;28;20036;-73
2021/05/27 07:13:24;;;;;;;0.22;0.22;;;;;;;9.24;90.13;101295.72;4958294;28;20153;-74
2021/05/27 07:15:49;;;;;;;0.30;0.30;;;;;;;9.32;91.52;101299.50;4961975;28;20039;-74
2021/05/27 07:18:15;;;;;;;0.20;0.20;;;;;;;9.69;91.18;101344.75;4975508;28;20363;-75
2021/05/27 07:20:42;;;;;;;0.20;0.20;;;;;;;9.76;90.12;101345.16;4946717;28;20462;-75
2021/05/27 07:23:08;;;;;;;0.13;0.13;;;;;;;9.88;91.12;101351.31;4961564;28;20167;-74
2021/05/27 07:25:34;;;;;;;0.28;0.28;;;;;;;9.86;89.77;101337.56;4962510;28;20166;-73
2021/05/27 07:27:59;;;;;;;0.20;0.20;;;;;;;9.78;90.59;101312.06;4974683;28;20326;-75
2021/05/27 07:30:27;;;;;;;0.20;0.20;;;;;;;10.06;90.39;101351.88;4956187;28;20445;-76
2021/05/27 07:32:54;;;;;;;0.15;0.15;;;;;;;9.98;90.20;101332.38;4959122;28;20501;-75
2021/05/27 07:35:20;;;;;;;0.40;0.30;;;;;;;9.94;88.79;101333.53;4957588;28;20035;-74
2021/05/27 07:37:45;;;;;;;0.30;0.30;;;;;;;9.74;90.90;101296.78;4964524;28;20551;-75
2021/05/27 07:40:11;;;;;;;0.20;0.20;;;;;;;10.15;90.67;101352.06;4962500;28;20073;-75
2021/05/27 07:42:37;;;;;;;0.20;0.20;;;;;;;10.18;89.25;101372.69;4963724;28;20409;-75
2021/05/27 07:45:04;;;;;;;0.25;0.25;;;;;;;10.04;91.05;101351.94;4961724;28;20203;-73
2021/05/27 07:47:32;;;;;;;0.28;0.28;;;;;;;10.10;90.27;101341.13;4964301;28;20505;-73
2021/05/27 07:49:59;;;;;;;0.20;0.20;;;;;;;10.50;89.59;101391.34;4964702;28;20062;-74
2021/05/27 07:52:25;;;;;;;0.22;0.22;;;;;;;10.53;86.95;101374.69;4960881;28;20039;-75
2021/05/27 07:54:52;;;;;;;0.20;0.20;;;;;;;10.69;88.13;101370.06;4961767;28;20054;-75
2021/05/27 07:57:18;;;;;;;0.20;0.20;;;;;;;10.81;87.49;101381.44;4976180;28;20097;-75
2021/05/27 07:59:44;;;;;;;0.20;0.20;;;;;;;10.96;88.47;101374.31;4979701;28;20468;-74
2021/05/27 08:02:10;;;;;;;0.30;0.30;;;;;;;10.94;86.88;101363.97;4979353;28;20038;-74
2021/05/27 08:04:35;;;;;;;0.20;0.20;;;;;;;11.04;85.77;101356.34;4974163;28;20058;-74
2021/05/27 08:07:01;;;;;;;0.30;0.30;;;;;;;10.97;86.35;101369.00;4979542;28;20078;-75
2021/05/27 08:09:26;;;;;;;0.20;0.20;;;;;;;11.29;85.90;101386.69;4981361;28;20042;-75
2021/05/27 08:11:52;;;;;;;0.35;0.35;;;;;;;11.14;87.08;101358.19;4981022;28;20037;-75
2021/05/27 08:14:17;;;;;;;0.20;0.20;;;;;;;11.45;85.03;101376.81;4950451;28;20030;-73
2021/05/27 08:16:43;;;;;;;0.22;0.22;;;;;;;11.23;84.48;101348.03;4980220;28;20489;-74
2021/05/27 08:19:09;;;;;;;0.20;0.20;;;;;;;11.45;83.79;101372.44;4994970;28;20756;-73
2021/05/27 08:21:34;;;;;;;0.30;0.20;;;;;;;11.49;84.73;101381.72;4967430;28;20049;-72
2021/05/27 08:24:00;;;;;;;0.20;0.20;;;;;;;11.50;84.56;101401.66;4983042;28;20041;-74
2021/05/27 08:26:26;;;;;;;0.85;0.30;;;;;;;11.42;84.29;101382.25;4966981;28;20042;-74
2021/05/27 08:28:53;;;;;;;0.52;0.22;;;;;;;11.53;85.28;101384.09;4960581;28;20193;-74
2021/05/27 08:31:22;;;;;;;0.30;0.30;;;;;;;11.67;83.96;101395.19;4978786;28;20488;-74
2021/05/27 08:33:49;;;;;;;0.25;0.25;;;;;;;11.69;83.14;101372.44;4982492;28;20050;-74
2021/05/27 08:36:15;;;;;;;0.30;0.30;;;;;;;12.01;81.87;101416.19;4984568;28;20078;-74
2021/05/27 08:38:41;;;;;;;0.30;0.30;;;;;;;11.94;81.82;101408.00;4964042;28;20045;-74
2021/05/27 08:41:09;;;;;;;0.30;0.30;;;;;;;11.83;81.34;101409.75;4963920;28;20424;-73
2021/05/27 08:43:34;;;;;;;0.20;0.20;;;;;;;11.93;81.67;101423.78;4993991;28;20118;-73
2021/05/27 08:46:02;;;;;;;0.22;0.22;;;;;;;11.91;82.88;101403.03;4977539;28;20134;-74
2021/05/27 08:48:28;;;;;;;0.55;0.30;;;;;;;11.95;80.35;101424.50;4992737;28;20101;-74
2021/05/27 08:50:55;;;;;;;0.40;0.40;;;;;;;11.75;81.60;101392.84;4963443;28;20302;-73
2021/05/27 08:53:21;;;;;;;0.30;0.30;;;;;;;11.77;81.31;101390.13;4975979;28;20074;-73
2021/05/27 08:55:48;;;;;;;0.43;0.40;;;;;;;12.00;81.02;101432.81;4976015;28;20120;-71
2021/05/27 08:58:15;;;;;;;0.38;0.38;;;;;;;11.91;81.46;101426.50;4993391;28;20169;-73
2021/05/27 09:00:40;;;;;;;0.20;0.20;;;;;;;11.84;81.30;101430.50;4974027;28;20058;-74
2021/05/27 09:03:08;;;;;;;0.47;0.38;;;;;;;11.66;81.92;101414.38;4975862;28;20077;-74
2021/05/27 09:05:36;;;;;;;0.35;0.35;;;;;;;11.72;80.82;101434.81;4957881;28;20521;-73
2021/05/27 09:08:04;;;;;;;0.30;0.30;;;;;;;11.70;80.18;101459.38;4954470;28;20533;-73
2021/05/27 09:10:48;;;;;;;0.28;0.28;;;;;;;11.57;80.43;101448.16;4977644;28;20046;-73
2021/05/27 09:13:15;;;;;;;0.30;0.30;;;;;;;11.54;81.97;101457.03;4960043;28;20041;-72
2021/05/27 09:15:42;;;;;;;0.40;0.40;;;;;;;11.05;81.47;101416.19;4962459;28;20058;-72
2021/05/27 09:18:08;;;;;;;0.50;0.50;;;;;;;11.20;82.38;101459.41;4959354;28;20038;-73
2021/05/27 09:20:34;;;;;;;0.30;0.30;;;;;;;11.06;81.49;101449.13;4977181;28;20496;-73
2021/05/27 09:23:15;;;;;;;0.30;0.30;;;;;;;11.14;82.30;101462.47;4958358;28;20097;-72
2021/05/27 09:26:04;;;;;;;0.30;0.30;;;;;;;11.25;81.37;101476.50;4975029;28;20560;-73
2021/05/27 09:28:30;;;;;;;0.50;0.50;;;;;;;11.36;82.14;101479.19;4977330;28;20601;-73
2021/05/27 09:31:10;;;;;;;0.40;0.40;;;;;;;11.30;81.58;101456.16;4984902;28;20042;-72
2021/05/27 09:33:42;;;;;;;0.30;0.30;;;;;;;11.60;82.56;101489.66;4961500;28;20042;-72
2021/05/27 09:36:19;;;;;;;0.40;0.40;;;;;;;11.78;80.97;101485.72;4980914;28;20039;-73
2021/05/27 09:38:54;;;;;;;0.50;0.35;;;;;;;11.97;80.57;101488.69;4954358;28;21186;-72
2021/05/27 09:41:23;;;;;;;0.38;0.38;;;;;;;12.09;80.28;101485.19;4979476;28;20087;-72
2021/05/27 09:43:52;;;;;;;0.30;0.30;;;;;;;12.25;78.75;101495.34;4959234;28;20062;-72
2021/05/27 09:46:19;;;;;;;0.40;0.40;;;;;;;12.03;78.78;101477.81;4972881;28;20034;-73
2021/05/27 09:48:45;;;;;;;0.20;0.20;;;;;;;11.67;78.29;101460.44;4960540;28;20031;-71
2021/05/27 09:51:32;;;;;;;0.40;0.40;;;;;;;11.61;78.93;101505.19;4974526;28;20038;-71
2021/05/27 09:53:59;;;;;;;0.40;0.40;;;;;;;11.58;79.81;101501.97;4958932;28;21221;-72
2021/05/27 09:56:34;;;;;;;0.20;0.20;;;;;;;11.64;80.26;101507.59;4971422;28;20069;-70
2021/05/27 09:59:00;;;;;;;0.30;0.30;;;;;;;11.69;80.76;101494.22;4980299;28;20054;-70
2021/05/27 10:01:26;;;;;;;0.40;0.40;;;;;;;11.84;80.17;101508.78;4965595;28;20041;-70
2021/05/27 10:03:51;;;;;;;0.38;0.30;;;;;;;11.80;77.36;101510.78;4981889;28;20579;-70
2021/05/27 10:06:17;;;;;;;0.30;0.30;;;;;;;11.42;79.62;101479.59;4961126;28;20046;-70
2021/05/27 10:08:50;;;;;;;0.38;0.38;;;;;;;11.38;80.07;101487.75;4980464;28;20125;-71
2021/05/27 10:11:17;;;;;;;0.30;0.30;;;;;;;11.44;80.08;101511.59;4964931;28;20041;-71
2021/05/27 10:13:43;;;;;;;0.45;0.40;;;;;;;11.37;82.83;101504.34;4981274;28;20436;-71
2021/05/27 10:16:15;;;;;;;0.30;0.30;;;;;;;11.25;84.45;101505.19;4959348;28;20038;-71
2021/05/27 10:18:41;;;;;;;0.30;0.30;;;;;;;11.44;82.68;101532.47;4976729;28;20635;-71
2021/05/27 10:21:08;;;;;;;0.32;0.28;;;;;;;11.67;82.62;101536.09;4948179;28;20034;-72
2021/05/27 10:23:34;;;;;;;0.20;0.20;;;;;;;11.75;81.21;101525.91;4980428;28;20493;-72
2021/05/27 10:25:59;;;;;;;0.22;0.22;;;;;;;11.93;80.83;101541.25;4943304;28;20049;-72
2021/05/27 10:28:26;;;;;;;0.28;0.28;;;;;;;11.86;81.82;101519.16;4985897;28;20086;-72
2021/05/27 10:30:52;;;;;;;0.30;0.30;;;;;;;11.91;82.92;101546.56;4980410;28;20594;-72
2021/05/27 10:33:21;;;;;;;0.20;0.20;;;;;;;11.55;81.26;101539.56;4958101;28;20130;-72
2021/05/27 10:35:51;;;;;;;0.28;0.28;;;;;;;11.35;83.54;101547.94;4992296;28;20035;-72
2021/05/27 10:38:36;;;;;;;0.25;0.25;;;;;;;11.40;83.23;101549.28;4965459;28;20046;-73
2021/05/27 10:41:03;;;;;;;0.20;0.20;;;;;;;11.44;83.28;101544.69;4978455;28;20038;-72
2021/05/27 10:43:29;;;;;;;0.32;0.32;;;;;;;11.46;84.03;101548.84;4961330;28;20030;-72
2021/05/27 10:45:58;;;;;;;0.50;0.30;;;;;;;11.67;83.80;101566.53;4982710;28;20456;-73
2021/05/27 10:48:25;;;;;;;0.30;0.30;;;;;;;11.78;83.23;101558.78;4961813;28;20120;-72
2021/05/27 10:51:27;;;;;;;0.30;0.30;;;;;;;11.86;82.10;101558.28;4972778;28;20041;-72
2021/05/27 10:53:54;;;;;;;0.20;0.20;;;;;;;11.64;83.37;101554.53;4977030;28;20042;-72
2021/05/27 10:56:44;;;;;;;0.30;0.30;;;;;;;11.59;84.45;101563.63;4974022;28;20099;-72
2021/05/27 10:59:12;;;;;;;0.30;0.20;;;;;;;11.65;86.00;101574.47;4963046;28;20058;-72
2021/05/27 11:01:40;;;;;;;0.28;0.28;;;;;;;11.77;85.32;101578.84;4975039;28;20034;-72
2021/05/27 11:04:07;;;;;;;0.20;0.20;;;;;;;11.69;83.82;101556.84;4963879;28;20065;-71
2021/05/27 11:06:33;;;;;;;0.20;0.20;;;;;;;11.96;81.57;101578.38;4980789;28;20485;-73
2021/05/27 11:09:16;;;;;;;0.32;0.32;;;;;;;12.39;80.33;101581.34;4960604;28;20034;-72
2021/05/27 11:11:50;;;;;;;0.30;0.30;;;;;;;12.99;81.27;101554.16;4993605;28;20042;-72
2021/05/27 11:14:36;;;;;;;0.25;0.25;;;;;;;13.54;79.19;101536.00;4958137;28;20034;-72
2021/05/27 11:17:05;;;;;;;0.30;0.30;;;;;;;13.22;78.63;101572.53;4977443;28;20509;-72
2021/05/27 11:25:13;;;;;;;0.35;0.35;;;;;;;12.59;77.52;101592.94;4966289;28;20061;-72
2021/05/27 11:27:44;;;;;;;0.20;0.20;;;;;;;12.94;79.50;101585.06;4981114;28;20038;-72
2021/05/27 11:30:17;;;;;;;0.22;0.22;;;;;;;12.88;77.98;101610.81;4964567;28;20046;-71
2021/05/27 11:32:43;;;;;;;0.20;0.20;;;;;;;12.46;79.03;101605.22;4978455;28;20046;-72
2021/05/27 11:35:09;;;;;;;0.30;0.30;;;;;;;12.39;80.23;101620.53;4975645;28;20050;-72
2021/05/27 11:37:36;;;;;;;0.30;0.30;;;;;;;12.40;81.05;101613.53;4975835;28;20459;-72
2021/05/27 11:40:06;;;;;;;0.20;0.20;;;;;;;12.48;81.23;101619.00;4972273;28;20042;-72
2021/05/27 11:42:33;;;;;;;0.30;0.30;;;;;;;13.07;81.45;101625.94;4970227;28;20077;-72
2021/05/27 11:45:00;;;;;;;0.30;0.30;;;;;;;12.89;75.48;101608.09;4953132;28;20528;-72
2021/05/27 11:47:30;;;;;;;0.30;0.30;;;;;;;13.42;77.36;101621.50;4974537;28;20045;-71